sensor_id;sensor_type;location;lat;lon;timestamp;pressure;altitude;pressure_sealevel;temperature
24201;BMP280;2801;50.972;7.856;2023-03-01T00:01:38;98708.34;;;-3.18
24201;BMP280;2801;50.972;7.856;2023-03-01T00:04:05;98706.53;;;-3.24
24201;BMP280;2801;50.972;7.856;2023-03-01T00:06:32;98711.00;;;-3.37
24201;BMP280;2801;50.972;7.856;2023-03-01T00:08:59;98708.00;;;-3.41
24201;BMP280;2801;50.972;7.856;2023-03-01T00:11:29;98709.38;;;-3.45
24201;BMP280;2801;50.972;7.856;2023-03-01T00:14:00;98708.19;;;-3.42
24201;BMP280;2801;50.972;7.856;2023-03-01T00:16:36;98707.56;;;-3.44
24201;BMP280;2801;50.972;7.856;2023-03-01T00:19:08;98703.34;;;-3.45
24201;BMP280;2801;50.972;7.856;2023-03-01T00:21:36;98711.63;;;-3.55
24201;BMP280;2801;50.972;7.856;2023-03-01T00:24:03;98703.97;;;-3.56
24201;BMP280;2801;50.972;7.856;2023-03-01T00:26:30;98705.38;;;-3.60
24201;BMP280;2801;50.972;7.856;2023-03-01T00:28:58;98704.75;;;-3.62
24201;BMP280;2801;50.972;7.856;2023-03-01T00:31:29;98704.16;;;-3.51
24201;BMP280;2801;50.972;7.856;2023-03-01T00:33:59;98696.09;;;-3.50
24201;BMP280;2801;50.972;7.856;2023-03-01T00:36:33;98692.88;;;-3.45
24201;BMP280;2801;50.972;7.856;2023-03-01T00:39:03;98694.88;;;-3.47
24201;BMP280;2801;50.972;7.856;2023-03-01T00:41:31;98688.03;;;-3.48
24201;BMP280;2801;50.972;7.856;2023-03-01T00:43:57;98685.81;;;-3.51
24201;BMP280;2801;50.972;7.856;2023-03-01T00:46:26;98684.81;;;-3.57
24201;BMP280;2801;50.972;7.856;2023-03-01T00:48:54;98698.72;;;-3.56
24201;BMP280;2801;50.972;7.856;2023-03-01T00:51:25;98684.63;;;-3.68
24201;BMP280;2801;50.972;7.856;2023-03-01T00:53:59;98689.66;;;-3.60
24201;BMP280;2801;50.972;7.856;2023-03-01T00:56:27;98689.88;;;-3.68
24201;BMP280;2801;50.972;7.856;2023-03-01T00:58:54;98672.13;;;-3.79
24201;BMP280;2801;50.972;7.856;2023-03-01T01:01:28;98680.56;;;-3.78
24201;BMP280;2801;50.972;7.856;2023-03-01T01:04:04;98676.16;;;-3.83
24201;BMP280;2801;50.972;7.856;2023-03-01T01:06:44;98685.03;;;-3.84
24201;BMP280;2801;50.972;7.856;2023-03-01T01:09:15;98682.00;;;-3.88
24201;BMP280;2801;50.972;7.856;2023-03-01T01:11:49;98678.56;;;-3.95
24201;BMP280;2801;50.972;7.856;2023-03-01T01:14:18;98661.88;;;-3.88
24201;BMP280;2801;50.972;7.856;2023-03-01T01:16:45;98682.59;;;-3.73
24201;BMP280;2801;50.972;7.856;2023-03-01T01:19:12;98676.16;;;-3.70
24201;BMP280;2801;50.972;7.856;2023-03-01T01:21:40;98673.53;;;-3.57
24201;BMP280;2801;50.972;7.856;2023-03-01T01:24:10;98669.88;;;-3.50
24201;BMP280;2801;50.972;7.856;2023-03-01T01:26:37;98666.81;;;-3.40
24201;BMP280;2801;50.972;7.856;2023-03-01T01:29:05;98662.59;;;-3.41
24201;BMP280;2801;50.972;7.856;2023-03-01T01:31:34;98664.22;;;-3.47
24201;BMP280;2801;50.972;7.856;2023-03-01T01:34:04;98659.59;;;-3.51
24201;BMP280;2801;50.972;7.856;2023-03-01T01:36:32;98651.94;;;-3.53
24201;BMP280;2801;50.972;7.856;2023-03-01T01:39:00;98651.34;;;-3.55
24201;BMP280;2801;50.972;7.856;2023-03-01T01:41:29;98649.53;;;-3.61
24201;BMP280;2801;50.972;7.856;2023-03-01T01:44:21;98650.75;;;-3.63
24201;BMP280;2801;50.972;7.856;2023-03-01T01:46:56;98662.47;;;-3.72
24201;BMP280;2801;50.972;7.856;2023-03-01T01:49:42;98656.41;;;-3.79
24201;BMP280;2801;50.972;7.856;2023-03-01T01:52:29;98651.97;;;-3.79
24201;BMP280;2801;50.972;7.856;2023-03-01T01:55:08;98653.38;;;-3.70
24201;BMP280;2801;50.972;7.856;2023-03-01T01:57:43;98634.63;;;-3.60
24201;BMP280;2801;50.972;7.856;2023-03-01T02:00:19;98646.28;;;-3.50
24201;BMP280;2801;50.972;7.856;2023-03-01T02:02:52;98641.44;;;-3.46
24201;BMP280;2801;50.972;7.856;2023-03-01T02:08:25;98641.28;;;-3.64
24201;BMP280;2801;50.972;7.856;2023-03-01T02:10:54;98637.06;;;-3.78
24201;BMP280;2801;50.972;7.856;2023-03-01T02:13:23;98648.34;;;-3.78
24201;BMP280;2801;50.972;7.856;2023-03-01T02:15:50;98638.28;;;-3.88
24201;BMP280;2801;50.972;7.856;2023-03-01T02:18:20;98633.03;;;-3.94
24201;BMP280;2801;50.972;7.856;2023-03-01T02:21:17;98634.88;;;-4.01
24201;BMP280;2801;50.972;7.856;2023-03-01T02:23:49;98636.28;;;-4.05
24201;BMP280;2801;50.972;7.856;2023-03-01T02:26:45;98627.41;;;-4.11
24201;BMP280;2801;50.972;7.856;2023-03-01T02:29:13;98622.78;;;-4.15
24201;BMP280;2801;50.972;7.856;2023-03-01T02:31:40;98620.56;;;-4.25
24201;BMP280;2801;50.972;7.856;2023-03-01T02:34:16;98627.59;;;-4.32
24201;BMP280;2801;50.972;7.856;2023-03-01T02:37:09;98628.59;;;-4.46
24201;BMP280;2801;50.972;7.856;2023-03-01T02:39:56;98626.16;;;-4.47
24201;BMP280;2801;50.972;7.856;2023-03-01T02:42:31;98624.56;;;-4.42
24201;BMP280;2801;50.972;7.856;2023-03-01T02:44:59;98614.13;;;-4.35
24201;BMP280;2801;50.972;7.856;2023-03-01T02:47:26;98602.44;;;-4.33
24201;BMP280;2801;50.972;7.856;2023-03-01T02:49:53;98607.66;;;-4.13
24201;BMP280;2801;50.972;7.856;2023-03-01T02:52:37;98599.19;;;-4.09
24201;BMP280;2801;50.972;7.856;2023-03-01T02:55:14;98609.47;;;-4.07
24201;BMP280;2801;50.972;7.856;2023-03-01T02:57:44;98610.69;;;-4.03
24201;BMP280;2801;50.972;7.856;2023-03-01T03:00:17;98601.22;;;-4.11
24201;BMP280;2801;50.972;7.856;2023-03-01T03:02:52;98595.19;;;-4.18
24201;BMP280;2801;50.972;7.856;2023-03-01T03:05:24;98598.38;;;-4.16
24201;BMP280;2801;50.972;7.856;2023-03-01T03:07:52;98592.38;;;-4.16
24201;BMP280;2801;50.972;7.856;2023-03-01T03:10:27;98589.13;;;-4.18
24201;BMP280;2801;50.972;7.856;2023-03-01T03:13:01;98599.41;;;-4.23
24201;BMP280;2801;50.972;7.856;2023-03-01T03:15:29;98602.00;;;-4.36
24201;BMP280;2801;50.972;7.856;2023-03-01T03:17:58;98593.78;;;-4.46
24201;BMP280;2801;50.972;7.856;2023-03-01T03:20:27;98599.19;;;-4.48
24201;BMP280;2801;50.972;7.856;2023-03-01T03:22:57;98594.75;;;-4.54
24201;BMP280;2801;50.972;7.856;2023-03-01T03:25:28;98612.47;;;-4.43
24201;BMP280;2801;50.972;7.856;2023-03-01T03:27:57;98610.06;;;-4.38
24201;BMP280;2801;50.972;7.856;2023-03-01T03:30:28;98600.22;;;-4.36
24201;BMP280;2801;50.972;7.856;2023-03-01T03:32:58;98587.13;;;-4.49
24201;BMP280;2801;50.972;7.856;2023-03-01T03:35:32;98589.75;;;-4.49
24201;BMP280;2801;50.972;7.856;2023-03-01T03:38:04;98577.03;;;-4.58
24201;BMP280;2801;50.972;7.856;2023-03-01T03:40:41;98582.25;;;-4.58
24201;BMP280;2801;50.972;7.856;2023-03-01T03:43:15;98577.25;;;-4.60
24201;BMP280;2801;50.972;7.856;2023-03-01T03:45:45;98566.38;;;-4.70
24201;BMP280;2801;50.972;7.856;2023-03-01T03:48:12;98561.91;;;-4.76
24201;BMP280;2801;50.972;7.856;2023-03-01T03:50:40;98561.31;;;-4.71
24201;BMP280;2801;50.972;7.856;2023-03-01T03:53:11;98574.59;;;-4.79
24201;BMP280;2801;50.972;7.856;2023-03-01T03:55:39;98563.31;;;-4.93
24201;BMP280;2801;50.972;7.856;2023-03-01T03:58:09;98570.78;;;-4.90
24201;BMP280;2801;50.972;7.856;2023-03-01T04:00:43;98564.53;;;-4.89
24201;BMP280;2801;50.972;7.856;2023-03-01T04:03:12;98557.88;;;-4.85
24201;BMP280;2801;50.972;7.856;2023-03-01T04:05:41;98562.31;;;-4.85
24201;BMP280;2801;50.972;7.856;2023-03-01T04:08:08;98564.34;;;-4.87
24201;BMP280;2801;50.972;7.856;2023-03-01T04:10:46;98556.88;;;-4.97
24201;BMP280;2801;50.972;7.856;2023-03-01T04:13:21;98563.69;;;-4.96
24201;BMP280;2801;50.972;7.856;2023-03-01T04:15:53;98559.88;;;-5.00
24201;BMP280;2801;50.972;7.856;2023-03-01T04:18:23;98559.06;;;-5.00
24201;BMP280;2801;50.972;7.856;2023-03-01T04:20:50;98554.44;;;-5.05
24201;BMP280;2801;50.972;7.856;2023-03-01T04:23:20;98548.78;;;-5.02
24201;BMP280;2801;50.972;7.856;2023-03-01T04:25:51;98539.38;;;-4.90
24201;BMP280;2801;50.972;7.856;2023-03-01T04:28:36;98540.97;;;-4.89
24201;BMP280;2801;50.972;7.856;2023-03-01T04:31:17;98534.94;;;-4.89
24201;BMP280;2801;50.972;7.856;2023-03-01T04:36:15;98545.19;;;-4.88
24201;BMP280;2801;50.972;7.856;2023-03-01T04:38:43;98540.16;;;-4.89
24201;BMP280;2801;50.972;7.856;2023-03-01T04:41:17;98534.94;;;-4.96
24201;BMP280;2801;50.972;7.856;2023-03-01T04:43:45;98542.38;;;-4.99
24201;BMP280;2801;50.972;7.856;2023-03-01T04:46:17;98556.44;;;-5.07
24201;BMP280;2801;50.972;7.856;2023-03-01T04:48:45;98550.59;;;-5.09
24201;BMP280;2801;50.972;7.856;2023-03-01T04:51:13;98543.91;;;-5.24
24201;BMP280;2801;50.972;7.856;2023-03-01T04:53:42;98549.53;;;-5.27
24201;BMP280;2801;50.972;7.856;2023-03-01T04:56:10;98541.72;;;-5.21
24201;BMP280;2801;50.972;7.856;2023-03-01T04:58:37;98549.34;;;-5.19
24201;BMP280;2801;50.972;7.856;2023-03-01T05:01:16;98550.38;;;-5.20
24201;BMP280;2801;50.972;7.856;2023-03-01T05:03:47;98549.75;;;-5.22
24201;BMP280;2801;50.972;7.856;2023-03-01T05:06:16;98549.97;;;-5.24
24201;BMP280;2801;50.972;7.856;2023-03-01T05:08:44;98554.00;;;-5.21
24201;BMP280;2801;50.972;7.856;2023-03-01T05:11:11;98557.81;;;-5.17
24201;BMP280;2801;50.972;7.856;2023-03-01T05:13:39;98555.59;;;-5.14
24201;BMP280;2801;50.972;7.856;2023-03-01T05:16:07;98548.78;;;-5.15
24201;BMP280;2801;50.972;7.856;2023-03-01T05:18:39;98555.81;;;-5.15
24201;BMP280;2801;50.972;7.856;2023-03-01T05:21:12;98552.97;;;-5.20
24201;BMP280;2801;50.972;7.856;2023-03-01T05:23:39;98551.75;;;-5.24
24201;BMP280;2801;50.972;7.856;2023-03-01T05:26:07;98546.09;;;-5.34
24201;BMP280;2801;50.972;7.856;2023-03-01T05:28:48;98546.09;;;-5.34
24201;BMP280;2801;50.972;7.856;2023-03-01T05:31:14;98540.06;;;-5.35
24201;BMP280;2801;50.972;7.856;2023-03-01T05:33:42;98544.88;;;-5.32
24201;BMP280;2801;50.972;7.856;2023-03-01T05:36:10;98551.13;;;-5.33
24201;BMP280;2801;50.972;7.856;2023-03-01T05:38:37;98543.47;;;-5.34
24201;BMP280;2801;50.972;7.856;2023-03-01T05:41:04;98553.75;;;-5.26
24201;BMP280;2801;50.972;7.856;2023-03-01T05:43:31;98553.81;;;-5.13
24201;BMP280;2801;50.972;7.856;2023-03-01T05:46:01;98534.09;;;-5.16
24201;BMP280;2801;50.972;7.856;2023-03-01T05:48:29;98545.97;;;-5.07
24201;BMP280;2801;50.972;7.856;2023-03-01T05:50:59;98520.63;;;-5.13
24201;BMP280;2801;50.972;7.856;2023-03-01T05:53:27;98530.28;;;-5.13
24201;BMP280;2801;50.972;7.856;2023-03-01T05:55:54;98530.28;;;-5.07
24201;BMP280;2801;50.972;7.856;2023-03-01T05:58:22;98530.91;;;-4.98
24201;BMP280;2801;50.972;7.856;2023-03-01T06:00:49;98522.84;;;-5.10
24201;BMP280;2801;50.972;7.856;2023-03-01T06:03:19;98520.00;;;-5.21
24201;BMP280;2801;50.972;7.856;2023-03-01T06:05:45;98521.63;;;-5.14
24201;BMP280;2801;50.972;7.856;2023-03-01T06:08:13;98515.41;;;-5.13
24201;BMP280;2801;50.972;7.856;2023-03-01T06:10:40;98524.47;;;-5.09
24201;BMP280;2801;50.972;7.856;2023-03-01T06:13:07;98525.81;;;-5.19
24201;BMP280;2801;50.972;7.856;2023-03-01T06:15:34;98536.28;;;-5.19
24201;BMP280;2801;50.972;7.856;2023-03-01T06:18:01;98528.25;;;-5.24
24201;BMP280;2801;50.972;7.856;2023-03-01T06:20:29;98536.47;;;-5.21
24201;BMP280;2801;50.972;7.856;2023-03-01T06:22:56;98533.06;;;-5.21
24201;BMP280;2801;50.972;7.856;2023-03-01T06:25:25;98541.13;;;-5.16
24201;BMP280;2801;50.972;7.856;2023-03-01T06:27:53;98540.94;;;-5.08
24201;BMP280;2801;50.972;7.856;2023-03-01T06:30:23;98538.13;;;-5.07
24201;BMP280;2801;50.972;7.856;2023-03-01T06:32:50;98526.47;;;-4.98
24201;BMP280;2801;50.972;7.856;2023-03-01T06:35:18;98533.53;;;-4.92
24201;BMP280;2801;50.972;7.856;2023-03-01T06:37:47;98520.44;;;-4.98
24201;BMP280;2801;50.972;7.856;2023-03-01T06:40:15;98525.88;;;-5.00
24201;BMP280;2801;50.972;7.856;2023-03-01T06:42:48;98530.91;;;-4.92
24201;BMP280;2801;50.972;7.856;2023-03-01T06:45:20;98526.91;;;-4.81
24201;BMP280;2801;50.972;7.856;2023-03-01T06:47:47;98520.88;;;-4.75
24201;BMP280;2801;50.972;7.856;2023-03-01T06:50:16;98529.94;;;-4.65
24201;BMP280;2801;50.972;7.856;2023-03-01T06:52:43;98524.50;;;-4.50
24201;BMP280;2801;50.972;7.856;2023-03-01T06:55:13;98515.84;;;-4.31
24201;BMP280;2801;50.972;7.856;2023-03-01T06:57:39;98522.25;;;-4.01
24201;BMP280;2801;50.972;7.856;2023-03-01T07:00:07;98509.19;;;-3.57
24201;BMP280;2801;50.972;7.856;2023-03-01T07:02:35;98512.31;;;-2.98
24201;BMP280;2801;50.972;7.856;2023-03-01T07:05:02;98508.44;;;-2.40
24201;BMP280;2801;50.972;7.856;2023-03-01T07:07:28;98497.50;;;-1.76
24201;BMP280;2801;50.972;7.856;2023-03-01T07:09:55;98488.25;;;-1.02
24201;BMP280;2801;50.972;7.856;2023-03-01T07:12:22;98487.22;;;-0.02
24201;BMP280;2801;50.972;7.856;2023-03-01T07:14:52;98479.53;;;1.04
24201;BMP280;2801;50.972;7.856;2023-03-01T07:17:20;98475.06;;;2.03
24201;BMP280;2801;50.972;7.856;2023-03-01T07:19:46;98452.78;;;2.85
24201;BMP280;2801;50.972;7.856;2023-03-01T07:22:13;98463.44;;;3.85
24201;BMP280;2801;50.972;7.856;2023-03-01T07:24:43;98460.69;;;4.73
24201;BMP280;2801;50.972;7.856;2023-03-01T07:27:10;98454.94;;;5.31
24201;BMP280;2801;50.972;7.856;2023-03-01T07:29:37;98452.78;;;5.08
24201;BMP280;2801;50.972;7.856;2023-03-01T07:32:06;98464.50;;;4.36
24201;BMP280;2801;50.972;7.856;2023-03-01T07:34:34;98464.53;;;3.57
24201;BMP280;2801;50.972;7.856;2023-03-01T07:37:00;98461.31;;;2.92
24201;BMP280;2801;50.972;7.856;2023-03-01T07:39:27;98460.75;;;2.42
24201;BMP280;2801;50.972;7.856;2023-03-01T07:41:54;98456.81;;;2.02
24201;BMP280;2801;50.972;7.856;2023-03-01T07:44:22;98460.78;;;1.66
24201;BMP280;2801;50.972;7.856;2023-03-01T07:46:49;98462.22;;;1.41
24201;BMP280;2801;50.972;7.856;2023-03-01T07:49:15;98457.03;;;1.46
24201;BMP280;2801;50.972;7.856;2023-03-01T07:51:43;98457.81;;;1.79
24201;BMP280;2801;50.972;7.856;2023-03-01T07:54:10;98449.31;;;2.15
24201;BMP280;2801;50.972;7.856;2023-03-01T07:56:37;98446.84;;;2.52
24201;BMP280;2801;50.972;7.856;2023-03-01T07:59:03;98442.94;;;2.81
24201;BMP280;2801;50.972;7.856;2023-03-01T08:01:30;98451.00;;;2.96
24201;BMP280;2801;50.972;7.856;2023-03-01T08:03:57;98441.97;;;3.18
24201;BMP280;2801;50.972;7.856;2023-03-01T08:06:24;98437.06;;;3.68
24201;BMP280;2801;50.972;7.856;2023-03-01T08:08:51;98443.22;;;4.26
24201;BMP280;2801;50.972;7.856;2023-03-01T08:11:18;98431.72;;;4.72
24201;BMP280;2801;50.972;7.856;2023-03-01T08:13:48;98432.88;;;5.26
24201;BMP280;2801;50.972;7.856;2023-03-01T08:16:20;98432.06;;;5.65
24201;BMP280;2801;50.972;7.856;2023-03-01T08:18:47;98426.75;;;5.90
24201;BMP280;2801;50.972;7.856;2023-03-01T08:21:17;98419.25;;;6.02
24201;BMP280;2801;50.972;7.856;2023-03-01T08:23:44;98434.41;;;6.07
24201;BMP280;2801;50.972;7.856;2023-03-01T08:26:18;98432.56;;;6.02
24201;BMP280;2801;50.972;7.856;2023-03-01T08:28:46;98429.09;;;5.92
24201;BMP280;2801;50.972;7.856;2023-03-01T08:31:39;98427.78;;;5.59
24201;BMP280;2801;50.972;7.856;2023-03-01T08:34:11;98432.06;;;5.35
24201;BMP280;2801;50.972;7.856;2023-03-01T08:36:42;98440.06;;;5.30
24201;BMP280;2801;50.972;7.856;2023-03-01T08:39:12;98427.00;;;5.49
24201;BMP280;2801;50.972;7.856;2023-03-01T08:41:40;98431.81;;;5.62
24201;BMP280;2801;50.972;7.856;2023-03-01T08:44:09;98432.06;;;5.50
24201;BMP280;2801;50.972;7.856;2023-03-01T08:46:40;98438.16;;;5.76
24201;BMP280;2801;50.972;7.856;2023-03-01T08:49:17;98437.53;;;6.29
24201;BMP280;2801;50.972;7.856;2023-03-01T08:51:46;98432.75;;;6.89
24201;BMP280;2801;50.972;7.856;2023-03-01T08:54:19;98429.50;;;7.64
24201;BMP280;2801;50.972;7.856;2023-03-01T08:56:47;98420.97;;;7.91
24201;BMP280;2801;50.972;7.856;2023-03-01T08:59:18;98421.97;;;8.00
24201;BMP280;2801;50.972;7.856;2023-03-01T09:01:45;98409.44;;;8.24
24201;BMP280;2801;50.972;7.856;2023-03-01T09:04:14;98411.25;;;8.29
24201;BMP280;2801;50.972;7.856;2023-03-01T09:06:41;98423.03;;;8.28
24201;BMP280;2801;50.972;7.856;2023-03-01T09:09:17;98411.25;;;8.29
24201;BMP280;2801;50.972;7.856;2023-03-01T09:11:45;98417.63;;;8.33
24201;BMP280;2801;50.972;7.856;2023-03-01T09:14:14;98409.44;;;8.48
24201;BMP280;2801;50.972;7.856;2023-03-01T09:16:41;98410.06;;;8.40
24201;BMP280;2801;50.972;7.856;2023-03-01T09:19:09;98420.03;;;8.34
24201;BMP280;2801;50.972;7.856;2023-03-01T09:21:37;98418.03;;;8.63
24201;BMP280;2801;50.972;7.856;2023-03-01T09:24:13;98409.97;;;9.05
24201;BMP280;2801;50.972;7.856;2023-03-01T09:26:40;98411.59;;;9.38
24201;BMP280;2801;50.972;7.856;2023-03-01T09:29:07;98406.69;;;9.59
24201;BMP280;2801;50.972;7.856;2023-03-01T09:31:36;98410.69;;;9.61
24201;BMP280;2801;50.972;7.856;2023-03-01T09:34:03;98417.59;;;9.49
24201;BMP280;2801;50.972;7.856;2023-03-01T09:36:30;98403.88;;;9.18
24201;BMP280;2801;50.972;7.856;2023-03-01T09:38:58;98395.94;;;9.13
24201;BMP280;2801;50.972;7.856;2023-03-01T09:46:59;98398.91;;;9.12
24201;BMP280;2801;50.972;7.856;2023-03-01T09:49:36;98405.97;;;9.03
24201;BMP280;2801;50.972;7.856;2023-03-01T09:52:28;98402.00;;;8.63
24201;BMP280;2801;50.972;7.856;2023-03-01T09:54:56;98394.72;;;8.27
24201;BMP280;2801;50.972;7.856;2023-03-01T09:57:50;98396.53;;;7.79
24201;BMP280;2801;50.972;7.856;2023-03-01T10:00:31;98400.09;;;7.41
24201;BMP280;2801;50.972;7.856;2023-03-01T10:08:56;98405.47;;;6.54
24201;BMP280;2801;50.972;7.856;2023-03-01T10:11:31;98403.63;;;6.54
24201;BMP280;2801;50.972;7.856;2023-03-01T10:17:01;98390.66;;;6.33
24201;BMP280;2801;50.972;7.856;2023-03-01T10:19:38;98394.84;;;6.49
24201;BMP280;2801;50.972;7.856;2023-03-01T10:22:19;98380.72;;;6.48
24201;BMP280;2801;50.972;7.856;2023-03-01T10:24:50;98376.47;;;6.47
24201;BMP280;2801;50.972;7.856;2023-03-01T10:27:26;98375.16;;;6.45
24201;BMP280;2801;50.972;7.856;2023-03-01T10:30:37;98356.13;;;6.61
24201;BMP280;2801;50.972;7.856;2023-03-01T10:33:26;98347.91;;;6.58
24201;BMP280;2801;50.972;7.856;2023-03-01T10:35:54;98355.66;;;6.54
24201;BMP280;2801;50.972;7.856;2023-03-01T10:38:21;98337.66;;;6.36
24201;BMP280;2801;50.972;7.856;2023-03-01T10:41:06;98348.59;;;6.30
24201;BMP280;2801;50.972;7.856;2023-03-01T10:43:58;98349.63;;;6.39
24201;BMP280;2801;50.972;7.856;2023-03-01T10:46:30;98351.19;;;6.40
24201;BMP280;2801;50.972;7.856;2023-03-01T10:49:21;98343.16;;;6.50
24201;BMP280;2801;50.972;7.856;2023-03-01T10:51:51;98349.41;;;6.74
24201;BMP280;2801;50.972;7.856;2023-03-01T10:54:31;98334.81;;;7.00
24201;BMP280;2801;50.972;7.856;2023-03-01T10:57:05;98334.22;;;7.41
24201;BMP280;2801;50.972;7.856;2023-03-01T10:59:37;98338.00;;;7.88
24201;BMP280;2801;50.972;7.856;2023-03-01T11:02:29;98329.34;;;8.19
24201;BMP280;2801;50.972;7.856;2023-03-01T11:05:20;98328.81;;;8.22
24201;BMP280;2801;50.972;7.856;2023-03-01T11:07:56;98325.78;;;8.29
24201;BMP280;2801;50.972;7.856;2023-03-01T11:10:31;98324.97;;;8.28
24201;BMP280;2801;50.972;7.856;2023-03-01T11:13:18;98313.34;;;8.14
24201;BMP280;2801;50.972;7.856;2023-03-01T11:16:02;98311.47;;;7.96
24201;BMP280;2801;50.972;7.856;2023-03-01T11:18:31;98309.47;;;7.83
24201;BMP280;2801;50.972;7.856;2023-03-01T11:21:15;98312.41;;;7.82
24201;BMP280;2801;50.972;7.856;2023-03-01T11:23:45;98307.25;;;7.90
24201;BMP280;2801;50.972;7.856;2023-03-01T11:26:14;98303.56;;;7.86
24201;BMP280;2801;50.972;7.856;2023-03-01T11:28:44;98307.03;;;7.87
24201;BMP280;2801;50.972;7.856;2023-03-01T11:31:16;98310.16;;;7.94
24201;BMP280;2801;50.972;7.856;2023-03-01T11:34:11;98297.41;;;7.86
24201;BMP280;2801;50.972;7.856;2023-03-01T11:36:58;98303.84;;;7.61
24201;BMP280;2801;50.972;7.856;2023-03-01T11:39:54;98304.84;;;7.41
24201;BMP280;2801;50.972;7.856;2023-03-01T11:42:56;98295.09;;;7.32
24201;BMP280;2801;50.972;7.856;2023-03-01T11:46:05;98288.13;;;7.31
24201;BMP280;2801;50.972;7.856;2023-03-01T11:48:52;98281.97;;;7.35
24201;BMP280;2801;50.972;7.856;2023-03-01T12:00:14;98277.03;;;7.24
24201;BMP280;2801;50.972;7.856;2023-03-01T12:08:42;98254.34;;;7.21
24201;BMP280;2801;50.972;7.856;2023-03-01T12:12:34;98253.88;;;7.19
24201;BMP280;2801;50.972;7.856;2023-03-01T12:14:45;98249.38;;;7.15
24201;BMP280;2801;50.972;7.856;2023-03-01T12:17:28;98242.44;;;7.14
24201;BMP280;2801;50.972;7.856;2023-03-01T12:20:21;98240.59;;;7.14
24201;BMP280;2801;50.972;7.856;2023-03-01T12:26:35;98231.22;;;7.40
24201;BMP280;2801;50.972;7.856;2023-03-01T12:32:12;98228.44;;;7.50
24201;BMP280;2801;50.972;7.856;2023-03-01T12:35:03;98224.94;;;7.55
24201;BMP280;2801;50.972;7.856;2023-03-01T12:37:58;98217.88;;;7.64
24201;BMP280;2801;50.972;7.856;2023-03-01T12:43:41;98214.31;;;7.92
24201;BMP280;2801;50.972;7.856;2023-03-01T12:49:25;98211.00;;;8.00
24201;BMP280;2801;50.972;7.856;2023-03-01T12:51:59;98204.94;;;8.13
24201;BMP280;2801;50.972;7.856;2023-03-01T12:54:35;98201.19;;;8.14
24201;BMP280;2801;50.972;7.856;2023-03-01T12:57:15;98207.22;;;8.25
24201;BMP280;2801;50.972;7.856;2023-03-01T13:03:09;98194.06;;;8.28
24201;BMP280;2801;50.972;7.856;2023-03-01T13:06:07;98189.53;;;8.29
24201;BMP280;2801;50.972;7.856;2023-03-01T13:09:02;98179.28;;;8.36
24201;BMP280;2801;50.972;7.856;2023-03-01T13:11:30;98183.94;;;8.44
24201;BMP280;2801;50.972;7.856;2023-03-01T13:16:54;98169.25;;;8.60
24201;BMP280;2801;50.972;7.856;2023-03-01T13:19:25;98167.78;;;8.67
24201;BMP280;2801;50.972;7.856;2023-03-01T13:21:54;98176.13;;;8.79
24201;BMP280;2801;50.972;7.856;2023-03-01T13:24:41;98176.63;;;8.95
24201;BMP280;2801;50.972;7.856;2023-03-01T13:29:51;98164.97;;;9.18
24201;BMP280;2801;50.972;7.856;2023-03-01T13:32:33;98155.19;;;9.27
24201;BMP280;2801;50.972;7.856;2023-03-01T13:37:46;98153.59;;;9.26
24201;BMP280;2801;50.972;7.856;2023-03-01T13:42:56;98142.38;;;9.37
24201;BMP280;2801;50.972;7.856;2023-03-01T13:45:43;98141.91;;;9.49
24201;BMP280;2801;50.972;7.856;2023-03-01T13:48:25;98144.19;;;9.42
24201;BMP280;2801;50.972;7.856;2023-03-01T13:51:02;98133.19;;;9.43
24201;BMP280;2801;50.972;7.856;2023-03-01T13:53:34;98132.25;;;9.48
24201;BMP280;2801;50.972;7.856;2023-03-01T13:56:16;98135.91;;;9.52
24201;BMP280;2801;50.972;7.856;2023-03-01T13:58:58;98119.78;;;9.57
24201;BMP280;2801;50.972;7.856;2023-03-01T14:01:33;98123.91;;;9.63
24201;BMP280;2801;50.972;7.856;2023-03-01T14:04:03;98135.53;;;9.58
24201;BMP280;2801;50.972;7.856;2023-03-01T14:06:32;98129.97;;;9.55
24201;BMP280;2801;50.972;7.856;2023-03-01T14:09:25;98130.47;;;9.57
24201;BMP280;2801;50.972;7.856;2023-03-01T14:12:30;98137.03;;;9.51
24201;BMP280;2801;50.972;7.856;2023-03-01T14:15:42;98132.25;;;9.48
24201;BMP280;2801;50.972;7.856;2023-03-01T14:18:22;98136.75;;;9.39
24201;BMP280;2801;50.972;7.856;2023-03-01T14:20:51;98135.84;;;9.43
24201;BMP280;2801;50.972;7.856;2023-03-01T14:23:22;98125.13;;;9.57
24201;BMP280;2801;50.972;7.856;2023-03-01T14:25:53;98133.75;;;9.54
24201;BMP280;2801;50.972;7.856;2023-03-01T14:28:26;98132.19;;;9.53
24201;BMP280;2801;50.972;7.856;2023-03-01T14:30:59;98126.72;;;9.58
24201;BMP280;2801;50.972;7.856;2023-03-01T14:33:34;98131.59;;;9.56
24201;BMP280;2801;50.972;7.856;2023-03-01T14:36:12;98116.50;;;9.60
24201;BMP280;2801;50.972;7.856;2023-03-01T14:38:48;98118.94;;;9.70
24201;BMP280;2801;50.972;7.856;2023-03-01T14:41:20;98117.66;;;9.67
24201;BMP280;2801;50.972;7.856;2023-03-01T14:43:53;98124.28;;;9.70
24201;BMP280;2801;50.972;7.856;2023-03-01T14:46:44;98122.88;;;9.50
24201;BMP280;2801;50.972;7.856;2023-03-01T14:49:17;98121.75;;;9.51
24201;BMP280;2801;50.972;7.856;2023-03-01T14:51:57;98115.00;;;9.54
24201;BMP280;2801;50.972;7.856;2023-03-01T14:54:29;98114.22;;;9.53
24201;BMP280;2801;50.972;7.856;2023-03-01T14:57:01;98108.69;;;9.50
24201;BMP280;2801;50.972;7.856;2023-03-01T14:59:28;98103.16;;;9.46
24201;BMP280;2801;50.972;7.856;2023-03-01T15:01:57;98097.28;;;9.44
24201;BMP280;2801;50.972;7.856;2023-03-01T15:04:27;98100.84;;;9.40
24201;BMP280;2801;50.972;7.856;2023-03-01T15:06:57;98097.41;;;9.39
24201;BMP280;2801;50.972;7.856;2023-03-01T15:09:34;98092.44;;;9.46
24201;BMP280;2801;50.972;7.856;2023-03-01T15:12:40;98098.28;;;9.35
24201;BMP280;2801;50.972;7.856;2023-03-01T15:15:35;98098.69;;;9.28
24201;BMP280;2801;50.972;7.856;2023-03-01T15:18:14;98088.59;;;9.25
24201;BMP280;2801;50.972;7.856;2023-03-01T15:20:42;98101.56;;;9.18
24201;BMP280;2801;50.972;7.856;2023-03-01T15:23:24;98093.44;;;9.10
24201;BMP280;2801;50.972;7.856;2023-03-01T15:25:54;98092.75;;;9.04
24201;BMP280;2801;50.972;7.856;2023-03-01T15:28:49;98091.28;;;8.98
24201;BMP280;2801;50.972;7.856;2023-03-01T15:31:20;98096.22;;;8.91
24201;BMP280;2801;50.972;7.856;2023-03-01T15:33:48;98096.69;;;8.80
24201;BMP280;2801;50.972;7.856;2023-03-01T15:36:43;98092.03;;;8.58
24201;BMP280;2801;50.972;7.856;2023-03-01T15:39:53;98100.31;;;8.43
24201;BMP280;2801;50.972;7.856;2023-03-01T15:45:19;98100.28;;;8.11
24201;BMP280;2801;50.972;7.856;2023-03-01T15:48:00;98101.59;;;7.95
24201;BMP280;2801;50.972;7.856;2023-03-01T15:50:32;98091.28;;;7.89
24201;BMP280;2801;50.972;7.856;2023-03-01T15:53:04;98093.09;;;7.74
24201;BMP280;2801;50.972;7.856;2023-03-01T15:55:33;98084.97;;;7.66
24201;BMP280;2801;50.972;7.856;2023-03-01T15:58:10;98088.63;;;7.51
24201;BMP280;2801;50.972;7.856;2023-03-01T16:00:39;98080.50;;;7.43
24201;BMP280;2801;50.972;7.856;2023-03-01T16:03:23;98086.75;;;7.33
24201;BMP280;2801;50.972;7.856;2023-03-01T16:05:51;98078.13;;;7.18
24201;BMP280;2801;50.972;7.856;2023-03-01T16:08:18;98086.78;;;7.10
24201;BMP280;2801;50.972;7.856;2023-03-01T16:10:46;98088.47;;;7.01